createdAt,value
2023-05-05T00:01:03.203Z,100725.20
2023-05-05T00:02:35.596Z,100723.80
2023-05-05T00:04:07.570Z,100726.20
2023-05-05T00:05:39.416Z,100722.80
2023-05-05T00:07:11.196Z,100723.00
2023-05-05T00:08:42.996Z,100724.00
2023-05-05T00:10:14.771Z,100721.60
2023-05-05T00:11:46.472Z,100720.00
2023-05-05T00:13:20.037Z,100724.40
2023-05-05T00:14:51.784Z,100724.60
2023-05-05T00:16:23.850Z,100723.00
2023-05-05T00:17:56.115Z,100721.00
2023-05-05T00:19:27.827Z,100718.60
2023-05-05T00:20:59.763Z,100717.80
2023-05-05T00:22:31.672Z,100715.00
2023-05-05T00:24:03.878Z,100710.00
2023-05-05T00:25:35.909Z,100710.00
2023-05-05T00:27:07.582Z,100708.20
2023-05-05T00:28:39.535Z,100709.20
2023-05-05T00:30:11.562Z,100707.80
2023-05-05T00:31:43.443Z,100706.60
2023-05-05T00:33:15.479Z,100709.80
2023-05-05T00:34:47.467Z,100708.20
2023-05-05T00:36:19.359Z,100704.00
2023-05-05T00:37:51.144Z,100709.80
2023-05-05T00:39:23.354Z,100708.80
2023-05-05T00:40:55.372Z,100710.60
2023-05-05T00:42:27.196Z,100711.40
2023-05-05T00:43:58.981Z,100710.80
2023-05-05T00:45:31.079Z,100712.00
2023-05-05T00:47:03.956Z,100709.80
2023-05-05T00:48:36.133Z,100708.40
2023-05-05T00:50:10.799Z,100708.60
2023-05-05T00:51:42.702Z,100706.40
2023-05-05T00:53:14.704Z,100706.00
2023-05-05T00:54:47.001Z,100703.40
2023-05-05T00:56:22.019Z,100701.00
2023-05-05T00:57:54.097Z,100700.40
2023-05-05T00:59:27.466Z,100696.40
2023-05-05T01:00:59.241Z,100691.80
2023-05-05T01:02:31.387Z,100688.80
2023-05-05T01:04:03.830Z,100686.40
2023-05-05T01:05:58.366Z,100687.60
2023-05-05T01:08:10.671Z,100689.80
2023-05-05T01:10:23.944Z,100687.00
2023-05-05T01:12:26.991Z,100689.20
2023-05-05T01:14:20.534Z,100685.40
2023-05-05T01:16:27.460Z,100683.40
2023-05-05T01:18:47.413Z,100685.80
2023-05-05T01:20:56.310Z,100687.40
2023-05-05T01:22:41.584Z,100688.80
2023-05-05T01:24:39.090Z,100685.40
2023-05-05T01:26:44.956Z,100687.80
2023-05-05T01:28:28.993Z,100689.40
2023-05-05T01:30:59.028Z,100687.40
2023-05-05T01:32:38.204Z,100691.40
2023-05-05T01:34:15.633Z,100692.20
2023-05-05T01:35:55.070Z,100692.40
2023-05-05T01:38:07.571Z,100686.20
2023-05-05T01:39:43.622Z,100688.40
2023-05-05T01:41:25.279Z,100691.20
2023-05-05T01:43:00.756Z,100690.80
2023-05-05T01:44:38.031Z,100689.00
2023-05-05T01:46:11.302Z,100688.60
2023-05-05T01:47:44.860Z,100692.00
2023-05-05T01:49:16.754Z,100693.00
2023-05-05T01:50:52.255Z,100692.60
2023-05-05T01:52:24.538Z,100691.60
2023-05-05T01:54:04.398Z,100692.20
2023-05-05T01:55:39.124Z,100693.40
2023-05-05T01:57:13.731Z,100698.40
2023-05-05T01:58:47.277Z,100698.20
2023-05-05T02:00:20.391Z,100694.20
2023-05-05T02:01:52.583Z,100692.60
2023-05-05T02:03:27.636Z,100697.60
2023-05-05T02:05:01.026Z,100695.00
2023-05-05T02:06:35.197Z,100692.40
2023-05-05T02:08:09.620Z,100691.20
2023-05-05T02:09:44.320Z,100698.80
2023-05-05T02:11:17.560Z,100698.40
2023-05-05T02:12:52.443Z,100705.60
2023-05-05T02:14:28.882Z,100708.00
2023-05-05T02:16:04.598Z,100704.80
2023-05-05T02:17:36.389Z,100707.00
2023-05-05T02:19:12.198Z,100715.20
2023-05-05T02:20:46.632Z,100718.60
2023-05-05T02:22:18.862Z,100721.00
2023-05-05T02:23:51.858Z,100716.20
2023-05-05T02:25:38.458Z,100716.40
2023-05-05T02:27:12.114Z,100720.20
2023-05-05T02:28:55.623Z,100720.80
2023-05-05T02:30:33.327Z,100720.00
2023-05-05T02:38:28.621Z,100716.80
2023-05-05T02:40:10.683Z,100717.00
2023-05-05T02:41:47.101Z,100722.20
2023-05-05T02:43:26.989Z,100726.80
2023-05-05T02:45:07.681Z,100726.40
2023-05-05T02:46:40.780Z,100734.40
2023-05-05T02:48:15.536Z,100734.60
2023-05-05T02:49:47.829Z,100735.60
2023-05-05T02:51:19.611Z,100734.20
2023-05-05T02:52:51.639Z,100741.80
2023-05-05T02:54:26.629Z,100744.00
2023-05-05T02:56:14.924Z,100748.20
2023-05-05T02:58:06.747Z,100749.20
2023-05-05T02:59:50.223Z,100750.00
2023-05-05T03:01:56.716Z,100752.80
2023-05-05T03:03:48.054Z,100749.40
2023-05-05T03:05:28.391Z,100750.00
2023-05-05T03:07:11.836Z,100757.00
2023-05-05T03:08:57.453Z,100751.20
2023-05-05T03:10:40.267Z,100756.60
2023-05-05T03:12:19.470Z,100752.20
2023-05-05T03:14:18.472Z,100758.40
2023-05-05T03:15:53.377Z,100761.00
2023-05-05T03:17:30.937Z,100762.20
2023-05-05T03:19:05.631Z,100765.00
2023-05-05T03:20:41.172Z,100762.40
2023-05-05T03:22:14.912Z,100766.00
2023-05-05T03:23:49.326Z,100765.60
2023-05-05T03:25:45.853Z,100766.80
2023-05-05T03:27:22.971Z,100772.40
2023-05-05T03:28:54.719Z,100774.00
2023-05-05T03:30:30.961Z,100770.00
2023-05-05T03:32:03.691Z,100771.60
2023-05-05T03:33:35.494Z,100772.60
2023-05-05T03:35:07.819Z,100771.80
2023-05-05T03:36:40.309Z,100769.80
2023-05-05T03:38:13.054Z,100771.40
2023-05-05T03:39:45.097Z,100773.40
2023-05-05T03:41:17.126Z,100773.80
2023-05-05T03:42:48.961Z,100775.20
2023-05-05T03:44:21.590Z,100777.00
2023-05-05T03:45:53.401Z,100771.60
2023-05-05T03:47:25.327Z,100774.00
2023-05-05T03:48:57.379Z,100769.00
2023-05-05T03:50:29.490Z,100769.60
2023-05-05T03:52:01.707Z,100769.60
2023-05-05T03:53:34.472Z,100768.60
2023-05-05T03:55:07.511Z,100773.40
2023-05-05T03:56:40.037Z,100772.80
2023-05-05T03:58:12.107Z,100773.20
2023-05-05T03:59:43.853Z,100772.80
2023-05-05T04:01:15.647Z,100774.40
2023-05-05T04:02:47.538Z,100774.40
2023-05-05T04:04:19.787Z,100776.00
2023-05-05T04:05:52.699Z,100778.00
2023-05-05T04:07:24.889Z,100779.00
2023-05-05T04:08:57.701Z,100776.00
2023-05-05T04:10:30.721Z,100775.80
2023-05-05T04:12:03.193Z,100775.40
2023-05-05T04:13:35.090Z,100779.20
2023-05-05T04:15:08.575Z,100780.00
2023-05-05T04:16:40.752Z,100776.80
2023-05-05T04:18:13.232Z,100780.00
2023-05-05T04:19:45.071Z,100776.60
2023-05-05T04:21:16.864Z,100777.60
2023-05-05T04:22:49.842Z,100776.00
2023-05-05T04:24:25.227Z,100775.80
2023-05-05T04:25:58.267Z,100775.00
2023-05-05T04:27:30.542Z,100776.20
2023-05-05T04:29:02.953Z,100780.60
2023-05-05T04:30:35.337Z,100780.40
2023-05-05T04:32:07.449Z,100780.80
2023-05-05T04:33:39.332Z,100785.60
2023-05-05T04:35:11.202Z,100785.20
2023-05-05T04:36:43.149Z,100787.40
2023-05-05T04:38:20.921Z,100792.60
2023-05-05T04:39:54.170Z,100791.00
2023-05-05T04:41:28.237Z,100795.80
2023-05-05T04:43:02.081Z,100794.20
2023-05-05T04:44:34.494Z,100791.20
2023-05-05T04:46:06.929Z,100788.40
2023-05-05T04:47:41.007Z,100793.80
2023-05-05T04:49:13.102Z,100792.80
2023-05-05T04:50:44.849Z,100791.40
2023-05-05T04:52:16.751Z,100793.60
2023-05-05T04:53:48.540Z,100794.60
2023-05-05T04:55:20.544Z,100796.40
2023-05-05T04:56:52.449Z,100796.80
2023-05-05T04:58:24.261Z,100800.40
2023-05-05T04:59:56.373Z,100805.20
2023-05-05T05:01:28.390Z,100809.00
2023-05-05T05:03:00.352Z,100810.40
2023-05-05T05:04:32.336Z,100808.80
2023-05-05T05:06:04.177Z,100812.60
2023-05-05T05:07:35.977Z,100814.80
2023-05-05T05:09:08.377Z,100815.80
2023-05-05T05:10:40.106Z,100820.00
2023-05-05T05:12:11.912Z,100823.60
2023-05-05T05:13:43.702Z,100825.00
2023-05-05T05:15:16.055Z,100826.00
2023-05-05T05:16:51.285Z,100827.80
2023-05-05T05:18:24.432Z,100832.40
2023-05-05T05:19:57.056Z,100835.80
2023-05-05T05:21:28.999Z,100845.40
2023-05-05T05:23:02.225Z,100838.20
2023-05-05T05:24:34.991Z,100833.00
2023-05-05T05:26:06.788Z,100834.60
2023-05-05T05:27:38.795Z,100839.20
2023-05-05T05:29:10.848Z,100840.80
2023-05-05T05:30:42.625Z,100846.40
2023-05-05T05:32:14.640Z,100840.20
2023-05-05T05:33:46.618Z,100838.40
2023-05-05T05:35:18.899Z,100836.80
2023-05-05T05:36:50.840Z,100833.20
2023-05-05T05:38:22.914Z,100836.60
2023-05-05T05:39:57.114Z,100850.60
2023-05-05T05:41:29.195Z,100851.80
2023-05-05T05:43:01.216Z,100855.80
2023-05-05T05:44:33.120Z,100854.00
2023-05-05T05:46:08.297Z,100857.60
2023-05-05T05:47:41.234Z,100861.60
2023-05-05T05:49:12.934Z,100857.60
2023-05-05T05:50:44.792Z,100859.80
2023-05-05T05:52:16.593Z,100858.00
2023-05-05T05:53:48.401Z,100859.00
2023-05-05T05:55:20.176Z,100857.00
2023-05-05T05:56:51.887Z,100858.60
2023-05-05T05:58:24.150Z,100858.40
2023-05-05T05:59:56.682Z,100860.60
2023-05-05T06:01:32.081Z,100864.60
2023-05-05T06:03:04.363Z,100862.40
2023-05-05T06:04:38.178Z,100863.60
2023-05-05T06:06:10.062Z,100867.80
2023-05-05T06:07:41.987Z,100868.00
2023-05-05T06:09:14.476Z,100865.80
2023-05-05T06:10:48.141Z,100869.00
2023-05-05T06:12:21.671Z,100869.20
2023-05-05T06:13:53.474Z,100865.20
2023-05-05T06:15:26.027Z,100865.40
2023-05-05T06:16:57.890Z,100871.60
2023-05-05T06:18:30.464Z,100868.40
2023-05-05T06:20:02.178Z,100869.00
2023-05-05T06:21:34.031Z,100864.60
2023-05-05T06:23:06.592Z,100867.60
2023-05-05T06:24:39.587Z,100868.00
2023-05-05T06:26:11.562Z,100864.00
2023-05-05T06:27:43.394Z,100867.60
2023-05-05T06:29:15.463Z,100872.20
2023-05-05T06:30:47.150Z,100868.80
2023-05-05T06:32:19.029Z,100868.00
2023-05-05T06:33:50.833Z,100864.80
2023-05-05T06:35:22.612Z,100863.00
2023-05-05T06:36:54.488Z,100857.60
2023-05-05T06:38:26.328Z,100856.40
2023-05-05T06:39:58.026Z,100855.60
2023-05-05T06:41:30.021Z,100861.80
2023-05-05T06:43:01.933Z,100858.40
2023-05-05T06:44:38.770Z,100857.60
2023-05-05T06:46:11.309Z,100864.00
2023-05-05T06:47:44.240Z,100862.40
2023-05-05T06:49:16.239Z,100864.20
2023-05-05T06:50:48.389Z,100874.00
2023-05-05T06:52:20.484Z,100864.80
2023-05-05T06:53:52.253Z,100863.00
2023-05-05T06:55:24.953Z,100865.80
2023-05-05T06:56:59.324Z,100869.40
2023-05-05T06:58:31.727Z,100862.20
2023-05-05T07:00:06.071Z,100869.00
2023-05-05T07:01:37.998Z,100866.80
2023-05-05T07:03:09.831Z,100870.60
2023-05-05T07:04:41.681Z,100872.20
2023-05-05T07:06:13.452Z,100875.00
2023-05-05T07:07:56.366Z,100872.20
2023-05-05T07:09:28.132Z,100870.40
2023-05-05T07:11:01.144Z,100873.00
2023-05-05T07:12:32.979Z,100873.00
2023-05-05T07:14:04.855Z,100871.60
2023-05-05T07:15:36.795Z,100873.80
2023-05-05T07:17:08.582Z,100877.40
2023-05-05T07:18:40.504Z,100878.40
2023-05-05T07:20:13.010Z,100885.80
2023-05-05T07:23:16.902Z,100887.00
2023-05-05T07:24:49.843Z,100893.60
2023-05-05T07:26:22.986Z,100902.20
2023-05-05T07:27:54.843Z,100909.20
2023-05-05T07:29:26.828Z,100910.40
2023-05-05T07:30:58.513Z,100907.60
2023-05-05T07:32:30.618Z,100908.00
2023-05-05T07:34:02.383Z,100911.80
2023-05-05T07:35:34.067Z,100912.40
2023-05-05T07:37:07.258Z,100919.40
2023-05-05T07:38:39.078Z,100914.20
2023-05-05T07:40:11.667Z,100919.00
2023-05-05T07:41:43.667Z,100915.80
2023-05-05T07:43:18.593Z,100917.40
2023-05-05T07:44:50.504Z,100921.00
2023-05-05T07:46:22.312Z,100920.40
2023-05-05T07:47:54.380Z,100921.20
2023-05-05T07:49:26.810Z,100921.60
2023-05-05T07:50:58.566Z,100924.00
2023-05-05T07:52:43.643Z,100922.80
2023-05-05T07:54:18.136Z,100926.00
2023-05-05T07:55:50.027Z,100921.80
2023-05-05T07:57:21.951Z,100920.80
2023-05-05T07:58:53.695Z,100922.80
2023-05-05T08:00:25.469Z,100928.40
2023-05-05T08:01:57.227Z,100927.60
2023-05-05T08:03:29.031Z,100924.00
2023-05-05T08:05:01.030Z,100926.20
2023-05-05T08:06:32.841Z,100928.60
2023-05-05T08:08:06.086Z,100929.60
2023-05-05T08:09:38.495Z,100929.80
2023-05-05T08:11:10.268Z,100934.60
2023-05-05T08:12:42.180Z,100935.00
2023-05-05T08:14:15.171Z,100936.20
2023-05-05T08:15:47.032Z,100936.80
2023-05-05T08:17:18.967Z,100937.60
2023-05-05T08:18:50.955Z,100941.20
2023-05-05T08:20:22.884Z,100935.80
2023-05-05T08:21:54.645Z,100937.80
2023-05-05T08:23:26.408Z,100934.60
2023-05-05T08:24:58.862Z,100936.20
2023-05-05T08:26:30.581Z,100935.20
2023-05-05T08:28:02.472Z,100936.20
2023-05-05T08:29:34.170Z,100938.60
2023-05-05T08:31:06.886Z,100934.00
2023-05-05T08:32:38.992Z,100938.40
2023-05-05T08:34:10.855Z,100943.80
2023-05-05T08:35:43.685Z,100941.00
2023-05-05T08:37:15.574Z,100941.20
2023-05-05T08:38:47.601Z,100944.20
2023-05-05T08:40:21.376Z,100942.60
2023-05-05T08:41:53.221Z,100943.00
2023-05-05T08:43:25.002Z,100939.00
2023-05-05T08:44:58.932Z,100943.80
2023-05-05T08:46:31.296Z,100943.80
2023-05-05T08:48:05.530Z,100943.20
2023-05-05T08:49:46.247Z,100942.40
2023-05-05T08:51:20.266Z,100946.00
2023-05-05T08:53:04.563Z,100945.20
2023-05-05T08:54:41.359Z,100940.40
2023-05-05T08:56:17.150Z,100937.20
2023-05-05T08:57:56.699Z,100946.40
2023-05-05T08:59:32.986Z,100936.40
2023-05-05T09:01:07.040Z,100937.80
2023-05-05T09:02:41.937Z,100936.20
2023-05-05T09:04:14.349Z,100932.00
2023-05-05T09:05:46.116Z,100934.00
2023-05-05T09:07:18.939Z,100938.80
2023-05-05T09:08:51.062Z,100935.40
2023-05-05T09:10:24.772Z,100934.00
2023-05-05T09:11:59.796Z,100935.00
2023-05-05T09:13:32.624Z,100930.20
2023-05-05T09:15:05.058Z,100932.80
2023-05-05T09:16:43.237Z,100930.80
2023-05-05T09:18:15.284Z,100925.20
2023-05-05T09:20:03.730Z,100927.20
2023-05-05T09:21:38.263Z,100928.60
2023-05-05T09:23:18.822Z,100928.60
2023-05-05T09:24:56.881Z,100929.20
2023-05-05T09:26:34.307Z,100932.00
2023-05-05T09:28:12.648Z,100940.80
2023-05-05T09:29:49.864Z,100932.60
2023-05-05T09:31:21.822Z,100934.60
2023-05-05T09:32:55.780Z,100931.80
2023-05-05T09:34:27.551Z,100933.80
2023-05-05T09:35:59.320Z,100938.60
2023-05-05T09:37:31.474Z,100939.80
2023-05-05T09:39:06.112Z,100945.80
2023-05-05T09:40:47.064Z,100947.60
2023-05-05T09:42:19.503Z,100948.40
2023-05-05T09:43:52.531Z,100946.00
2023-05-05T09:45:27.393Z,100945.60
2023-05-05T09:46:59.701Z,100947.20
2023-05-05T09:48:32.403Z,100950.40
2023-05-05T09:50:06.052Z,100943.80
2023-05-05T09:51:38.828Z,100945.80
2023-05-05T09:53:11.804Z,100943.80
2023-05-05T09:54:44.320Z,100949.60
2023-05-05T09:56:16.161Z,100946.80
2023-05-05T09:57:48.161Z,100946.40
2023-05-05T09:59:21.367Z,100946.80
2023-05-05T10:00:55.147Z,100944.20
2023-05-05T10:02:36.020Z,100937.80
2023-05-05T10:04:07.977Z,100945.20
2023-05-05T10:05:54.117Z,100940.00
2023-05-05T10:07:26.750Z,100933.60
2023-05-05T10:09:02.301Z,100933.60
2023-05-05T10:10:34.760Z,100929.20
2023-05-05T10:12:06.678Z,100929.60
2023-05-05T10:13:42.011Z,100938.20
2023-05-05T10:15:16.617Z,100941.00
2023-05-05T10:16:51.988Z,100941.00
2023-05-05T10:18:28.673Z,100946.20
2023-05-05T10:20:03.912Z,100943.00
2023-05-05T10:21:42.091Z,100937.80
2023-05-05T10:23:19.525Z,100944.40
2023-05-05T10:25:02.190Z,100938.60
2023-05-05T10:26:41.217Z,100937.20
2023-05-05T10:28:23.283Z,100936.20
2023-05-05T10:30:02.760Z,100943.60
2023-05-05T10:32:10.225Z,100938.40
2023-05-05T10:34:03.752Z,100927.40
2023-05-05T10:35:40.831Z,100919.60
2023-05-05T10:37:13.527Z,100916.20
2023-05-05T10:38:46.434Z,100910.00
2023-05-05T10:40:18.445Z,100912.20
2023-05-05T10:41:52.085Z,100905.80
2023-05-05T10:43:24.786Z,100904.00
2023-05-05T10:44:56.847Z,100901.80
2023-05-05T10:46:29.498Z,100910.00
2023-05-05T10:48:08.809Z,100899.20
2023-05-05T10:49:53.301Z,100900.40
2023-05-05T10:51:41.595Z,100902.60
2023-05-05T10:53:18.877Z,100903.00
2023-05-05T10:55:06.404Z,100891.80
2023-05-05T10:56:42.050Z,100887.00
2023-05-05T10:58:51.057Z,100878.60
2023-05-05T11:00:41.057Z,100877.20
2023-05-05T11:02:27.835Z,100873.80
2023-05-05T11:04:22.507Z,100876.00
2023-05-05T11:06:09.215Z,100871.40
2023-05-05T11:07:42.755Z,100876.60
2023-05-05T11:09:28.694Z,100871.20
2023-05-05T11:11:02.464Z,100859.60
2023-05-05T11:12:54.446Z,100861.40
2023-05-05T11:14:26.332Z,100857.60
2023-05-05T11:16:00.785Z,100859.00
2023-05-05T11:17:48.509Z,100853.80
2023-05-05T11:19:46.765Z,100855.40
2023-05-05T11:21:18.721Z,100850.80
2023-05-05T11:23:19.186Z,100851.20
2023-05-05T11:24:50.915Z,100853.40
2023-05-05T11:26:52.775Z,100846.40
2023-05-05T11:28:31.268Z,100836.40
2023-05-05T11:30:11.044Z,100838.80
2023-05-05T11:31:42.995Z,100827.00
2023-05-05T11:33:36.878Z,100821.80
2023-05-05T11:35:08.758Z,100829.40
2023-05-05T11:36:41.138Z,100827.40
2023-05-05T11:38:16.453Z,100826.20
2023-05-05T11:39:58.810Z,100823.80
2023-05-05T11:41:31.042Z,100824.00
2023-05-05T11:43:07.314Z,100822.00
2023-05-05T11:44:39.320Z,100829.00
2023-05-05T11:46:13.445Z,100826.00
2023-05-05T11:47:46.700Z,100827.60
2023-05-05T11:49:39.848Z,100829.40
2023-05-05T11:51:18.036Z,100835.00
2023-05-05T11:52:51.115Z,100841.20
2023-05-05T11:54:24.231Z,100838.20
2023-05-05T11:56:14.244Z,100843.80
2023-05-05T11:57:46.018Z,100840.00
2023-05-05T11:59:20.741Z,100840.00
2023-05-05T12:00:53.805Z,100836.80
2023-05-05T12:02:27.973Z,100833.80
2023-05-05T12:04:00.018Z,100832.20
2023-05-05T12:05:33.662Z,100830.60
2023-05-05T12:07:07.655Z,100838.40
2023-05-05T12:08:41.313Z,100844.40
2023-05-05T12:10:13.209Z,100847.40
2023-05-05T12:11:57.383Z,100847.00
2023-05-05T12:13:30.149Z,100855.80
2023-05-05T12:15:02.184Z,100858.40
2023-05-05T12:16:33.928Z,100849.80
2023-05-05T12:18:06.450Z,100850.80
2023-05-05T12:19:46.484Z,100852.20
2023-05-05T12:21:19.687Z,100859.00
2023-05-05T12:22:51.629Z,100861.80
2023-05-05T12:24:23.629Z,100870.40
2023-05-05T12:25:56.428Z,100880.60
2023-05-05T12:27:29.180Z,100897.20
2023-05-05T12:29:01.334Z,100915.20
2023-05-05T12:30:33.260Z,100922.40
2023-05-05T12:32:05.657Z,100924.00
2023-05-05T12:33:41.656Z,100915.00
2023-05-05T12:35:14.293Z,100922.40
2023-05-05T12:36:46.945Z,100920.40
2023-05-05T12:38:18.710Z,100921.20
2023-05-05T12:39:51.623Z,100917.40
2023-05-05T12:41:23.535Z,100918.60
2023-05-05T12:42:55.453Z,100916.60
2023-05-05T12:44:38.182Z,100923.20
2023-05-05T12:46:12.611Z,100920.20
2023-05-05T12:47:44.919Z,100919.60
2023-05-05T12:49:16.980Z,100915.20
2023-05-05T12:50:48.677Z,100915.80
2023-05-05T12:52:21.139Z,100912.60
2023-05-05T12:54:12.501Z,100916.00
2023-05-05T12:55:44.244Z,100916.40
2023-05-05T12:57:15.900Z,100916.00
2023-05-05T12:58:51.041Z,100917.20
2023-05-05T13:00:23.872Z,100920.60
2023-05-05T13:01:58.059Z,100915.00
2023-05-05T13:03:30.037Z,100910.20
2023-05-05T13:05:02.090Z,100901.40
2023-05-05T13:06:34.760Z,100896.60
2023-05-05T13:08:07.206Z,100888.40
2023-05-05T13:09:39.537Z,100890.00
2023-05-05T13:11:11.351Z,100888.80
2023-05-05T13:12:43.175Z,100886.60
2023-05-05T13:14:14.968Z,100882.60
2023-05-05T13:15:46.800Z,100869.00
2023-05-05T13:17:18.595Z,100865.00
2023-05-05T13:18:51.178Z,100860.20
2023-05-05T13:20:22.971Z,100862.40
2023-05-05T13:21:56.722Z,100855.20
2023-05-05T13:23:28.525Z,100854.20
2023-05-05T13:25:00.295Z,100853.60
2023-05-05T13:26:32.023Z,100849.40
2023-05-05T13:28:03.900Z,100851.80
2023-05-05T13:29:35.701Z,100849.60
2023-05-05T13:31:08.356Z,100847.40
2023-05-05T13:32:40.139Z,100844.60
2023-05-05T13:34:12.330Z,100840.60
2023-05-05T13:35:44.130Z,100845.40
2023-05-05T13:37:15.921Z,100849.80
2023-05-05T13:38:47.678Z,100852.00
2023-05-05T13:40:19.349Z,100855.20
2023-05-05T13:41:51.330Z,100851.60
2023-05-05T13:43:23.291Z,100859.80
2023-05-05T13:44:55.266Z,100860.60
2023-05-05T13:46:27.216Z,100858.00
2023-05-05T13:48:00.162Z,100855.60
2023-05-05T13:49:32.004Z,100855.20
2023-05-05T13:51:03.991Z,100852.60
2023-05-05T13:52:35.764Z,100850.80
2023-05-05T13:54:07.984Z,100840.00
2023-05-05T13:55:40.105Z,100847.00
2023-05-05T13:57:12.460Z,100842.80
2023-05-05T13:58:44.275Z,100846.80
2023-05-05T14:00:17.121Z,100851.60
2023-05-05T14:01:49.242Z,100851.00
2023-05-05T14:03:22.090Z,100845.20
2023-05-05T14:04:53.851Z,100843.40
2023-05-05T14:06:26.496Z,100841.20
2023-05-05T14:07:59.608Z,100844.00
2023-05-05T14:09:31.371Z,100845.20
2023-05-05T14:11:03.750Z,100845.20
2023-05-05T14:12:35.525Z,100845.60
2023-05-05T14:14:07.405Z,100837.00
2023-05-05T14:15:39.217Z,100837.40
2023-05-05T14:17:11.694Z,100833.80
2023-05-05T14:18:43.759Z,100833.60
2023-05-05T14:20:15.964Z,100840.80
2023-05-05T14:21:47.673Z,100841.00
2023-05-05T14:23:19.388Z,100836.20
2023-05-05T14:24:51.370Z,100839.40
2023-05-05T14:26:23.203Z,100840.40
2023-05-05T14:27:55.771Z,100841.80
2023-05-05T14:29:27.453Z,100844.00
2023-05-05T14:30:59.228Z,100846.60
2023-05-05T14:32:31.241Z,100839.60
2023-05-05T14:34:03.236Z,100848.20
2023-05-05T14:35:35.042Z,100842.20
2023-05-05T14:37:06.994Z,100839.60
2023-05-05T14:38:38.900Z,100839.40
2023-05-05T14:40:11.688Z,100839.40
2023-05-05T14:41:43.599Z,100840.20
2023-05-05T14:43:16.342Z,100841.40
2023-05-05T14:44:48.319Z,100845.60
2023-05-05T14:46:20.356Z,100852.00
2023-05-05T14:47:52.199Z,100854.00
2023-05-05T14:49:23.990Z,100854.40
2023-05-05T14:50:55.788Z,100859.20
2023-05-05T14:52:27.586Z,100867.00
2023-05-05T14:53:59.551Z,100873.60
2023-05-05T14:55:31.360Z,100881.20
2023-05-05T14:57:03.199Z,100884.20
2023-05-05T14:58:35.107Z,100896.20
2023-05-05T15:00:07.826Z,100904.40
2023-05-05T15:01:40.073Z,100911.00
2023-05-05T15:03:11.889Z,100898.80
2023-05-05T15:04:43.664Z,100901.60
2023-05-05T15:06:15.576Z,100902.60
2023-05-05T15:07:47.341Z,100910.20
2023-05-05T15:09:20.229Z,100913.60
2023-05-05T15:10:51.991Z,100904.60
2023-05-05T15:12:23.966Z,100894.20
2023-05-05T15:13:55.779Z,100897.80
2023-05-05T15:15:27.486Z,100904.40
2023-05-05T15:16:59.288Z,100912.20
2023-05-05T15:18:31.097Z,100916.80
2023-05-05T15:20:04.571Z,100927.60
2023-05-05T15:21:36.360Z,100922.80
2023-05-05T15:23:08.132Z,100916.80
2023-05-05T15:24:39.958Z,100918.40
2023-05-05T15:26:11.752Z,100921.80
2023-05-05T15:27:43.530Z,100923.60
2023-05-05T15:29:15.553Z,100926.60
2023-05-05T15:30:47.377Z,100933.00
2023-05-05T15:32:19.096Z,100929.60
2023-05-05T15:33:51.215Z,100928.60
2023-05-05T15:35:25.562Z,100928.40
2023-05-05T15:36:57.338Z,100931.00
2023-05-05T15:38:29.779Z,100929.20
2023-05-05T15:40:01.900Z,100922.00
2023-05-05T15:41:34.623Z,100921.20
2023-05-05T15:43:06.910Z,100922.40
2023-05-05T15:44:38.710Z,100922.80
2023-05-05T15:46:10.412Z,100921.40
2023-05-05T15:47:42.131Z,100924.20
2023-05-05T15:49:13.938Z,100929.20
2023-05-05T15:50:45.718Z,100931.20
2023-05-05T15:52:18.005Z,100935.20
2023-05-05T15:53:49.736Z,100939.60
2023-05-05T15:55:21.963Z,100943.20
2023-05-05T15:56:53.764Z,100946.00
2023-05-05T15:58:25.569Z,100947.00
2023-05-05T15:59:57.255Z,100949.60
2023-05-05T16:01:28.949Z,100950.80
2023-05-05T16:03:00.894Z,100955.00
2023-05-05T16:04:32.622Z,100954.40
2023-05-05T16:06:04.449Z,100952.80
2023-05-05T16:07:36.476Z,100944.00
2023-05-05T16:09:08.384Z,100937.60
2023-05-05T16:10:40.193Z,100940.20
2023-05-05T16:12:11.882Z,100943.80
2023-05-05T16:13:43.590Z,100946.60
2023-05-05T16:15:15.913Z,100947.60
2023-05-05T16:16:47.798Z,100943.40
2023-05-05T16:18:19.611Z,100943.80
2023-05-05T16:19:51.427Z,100939.00
2023-05-05T16:21:23.266Z,100936.80
2023-05-05T16:22:55.151Z,100937.80
2023-05-05T16:24:27.041Z,100936.60
2023-05-05T16:25:58.812Z,100939.80
2023-05-05T16:27:30.596Z,100936.80
2023-05-05T16:29:02.398Z,100936.40
2023-05-05T16:30:34.246Z,100940.20
2023-05-05T16:32:06.201Z,100943.00
2023-05-05T16:33:43.525Z,100944.60
2023-05-05T16:35:15.602Z,100943.40
2023-05-05T16:36:47.345Z,100946.20
2023-05-05T16:38:19.128Z,100944.80
2023-05-05T16:39:50.953Z,100941.80
2023-05-05T16:41:23.059Z,100936.60
2023-05-05T16:42:54.892Z,100928.60
2023-05-05T16:44:26.738Z,100919.40
2023-05-05T16:45:58.622Z,100913.00
2023-05-05T16:47:30.492Z,100912.20
2023-05-05T16:49:02.289Z,100894.40
2023-05-05T16:50:34.079Z,100902.00
2023-05-05T16:52:05.995Z,100908.00
2023-05-05T16:53:37.814Z,100908.00
2023-05-05T16:55:09.884Z,100899.60
2023-05-05T16:56:41.721Z,100883.60
2023-05-05T16:58:13.444Z,100902.40
2023-05-05T16:59:45.140Z,100887.20
2023-05-05T17:01:16.997Z,100908.60
2023-05-05T17:02:48.865Z,100908.60
2023-05-05T17:04:20.591Z,100906.00
2023-05-05T17:05:52.988Z,100902.40
2023-05-05T17:07:24.987Z,100904.00
2023-05-05T17:08:56.732Z,100906.20
2023-05-05T17:10:28.621Z,100905.00
2023-05-05T17:12:00.816Z,100902.20
2023-05-05T17:13:32.509Z,100903.00
2023-05-05T17:15:05.070Z,100904.20
2023-05-05T17:16:37.120Z,100897.80
2023-05-05T17:18:09.239Z,100901.00
2023-05-05T17:19:42.635Z,100900.00
2023-05-05T17:21:14.495Z,100906.60
2023-05-05T17:22:46.648Z,100907.40
2023-05-05T17:24:18.510Z,100909.40
2023-05-05T17:25:50.335Z,100907.00
2023-05-05T17:27:22.137Z,100904.20
2023-05-05T17:28:53.922Z,100900.00
2023-05-05T17:30:26.452Z,100902.60
2023-05-05T17:31:58.504Z,100904.00
2023-05-05T17:33:30.234Z,100902.20
2023-05-05T17:35:02.038Z,100902.40
2023-05-05T17:36:33.999Z,100901.40
2023-05-05T17:38:05.719Z,100901.60
2023-05-05T17:39:37.505Z,100899.80
2023-05-05T17:41:09.335Z,100903.40
2023-05-05T17:42:41.301Z,100904.20
2023-05-05T17:44:13.204Z,100905.20
2023-05-05T17:45:46.715Z,100904.40
2023-05-05T17:47:24.173Z,100905.80
2023-05-05T17:48:56.186Z,100907.60
2023-05-05T17:50:27.940Z,100906.80
2023-05-05T17:51:59.814Z,100903.40
2023-05-05T17:53:31.716Z,100909.80
2023-05-05T17:55:04.092Z,100915.20
2023-05-05T17:56:36.781Z,100916.00
2023-05-05T17:58:08.518Z,100915.80
2023-05-05T17:59:40.239Z,100924.00
2023-05-05T18:01:24.188Z,100926.80
2023-05-05T18:02:56.130Z,100926.40
2023-05-05T18:04:27.933Z,100927.80
2023-05-05T18:05:59.913Z,100926.20
2023-05-05T18:07:33.512Z,100932.60